Ginys del Meteocat
Campanya meteocatpedra

Dades de l'estació automàtica Monells

?
?
Resum diari 21:30 TU
Dades diàries de l'estació meteorològica
Temperatura mitjana 14.0 °C
Temperatura màxima 16.4 °C 9:58 TU
Temperatura mínima 11.6 °C 6:05 TU
Humitat relativa mitjana 92%
Precipitació acumulada 10.1 mm
Ratxa màxima del vent (2 m) 11.2 km/h - 280º 7:56 TU
Irradiació solar global 2.2 MJ/m2

El tram horari està expressat en Temps Universal (TU). Cal sumar una hora en horari d'hivern i dues en horari d'estiu per passar a l'hora oficial.

Monells

Metadades estació meteorol´gica
Municipi Cruïlles, Monells i Sant Sadurní de l'Heura
Comarca Baix Empordà
Altitud 60 m
Data alta 04.03.1998
Estat actual Operativa
Dades de període
Període
TU
TM
°C
TX
°C
TN
°C
HRM
%
PPT
mm
VVM (2 m)
km/h
DVM (2 m)
graus
VVX (2 m)
km/h
RS
W/m2
00:00 - 00:30 13.9 14.5 13.5 89 0.0 2.2 214 6.5 0
00:30 - 01:00 13.2 13.5 13.2 92 0.0 2.9 208 8.3 0
01:00 - 01:30 13.2 13.3 13.0 92 0.0 1.8 198 7.2 0
01:30 - 02:00 12.8 12.9 12.5 93 0.0 1.1 239 4.0 0
02:00 - 02:30 13.0 13.5 12.5 92 0.0 2.2 253 6.1 0
02:30 - 03:00 12.6 13.3 12.4 93 0.0 1.8 244 5.0 0
03:00 - 03:30 12.5 12.7 12.2 94 0.0 1.8 237 5.8 0
03:30 - 04:00 12.5 12.6 12.4 94 0.0 2.5 224 5.0 0
04:00 - 04:30 12.2 12.4 12.2 94 0.0 1.4 219 3.2 0
04:30 - 05:00 12.1 12.2 12.0 95 0.0 1.1 217 3.2 0
05:00 - 05:30 12.0 12.1 11.8 95 0.0 2.2 225 4.3 0
05:30 - 06:00 11.9 12.0 11.8 95 0.0 1.1 220 2.9 0
06:00 - 06:30 11.7 11.9 11.6 95 0.0 2.2 235 5.8 3
06:30 - 07:00 12.0 12.2 11.9 95 0.0 2.2 219 5.0 17
07:00 - 07:30 12.5 12.9 12.2 93 0.0 0.7 204 3.2 45
07:30 - 08:00 13.2 13.4 13.0 91 0.0 3.2 252 11.2 27
08:00 - 08:30 14.0 14.4 13.5 87 0.0 3.6 225 6.8 76
08:30 - 09:00 14.7 15.2 14.4 85 0.0 1.8 219 8.3 105
09:00 - 09:30 15.5 15.8 15.2 79 0.0 2.9 237 7.6 128
09:30 - 10:00 16.1 16.4 15.8 74 0.0 3.2 216 8.3 136
10:00 - 10:30 16.3 16.4 16.2 73 0.0 2.2 183 6.5 82
10:30 - 11:00 16.3 16.4 16.0 75 0.2 2.5 121 9.0 88
11:00 - 11:30 15.9 16.0 15.7 82 0.0 2.5 197 6.5 73
11:30 - 12:00 15.8 15.9 15.7 81 0.1 1.1 119 5.4 64
12:00 - 12:30 15.3 15.9 14.9 88 1.9 1.8 114 5.8 61
12:30 - 13:00 14.6 14.9 14.3 94 2.0 1.4 85 5.0 56
13:00 - 13:30 14.3 14.5 14.2 96 0.8 3.6 300 9.4 42
13:30 - 14:00 14.4 14.4 14.3 96 1.5 0.4 307 3.2 47
14:00 - 14:30 14.5 14.6 14.4 96 0.6 1.8 225 5.8 54
14:30 - 15:00 14.5 14.5 14.4 96 0.5 0.4 236 2.5 59
15:00 - 15:30 14.6 14.7 14.5 96 0.2 0.7 145 3.6 35
15:30 - 16:00 14.7 14.7 14.6 97 0.2 2.9 296 6.1 23
16:00 - 16:30 14.6 14.7 14.6 97 0.4 1.4 37 5.0 14
16:30 - 17:00 14.6 14.7 14.6 97 0.0 3.6 291 6.8 2
17:00 - 17:30 14.6 14.7 14.6 98 1.2 1.4 232 4.7 0
17:30 - 18:00 14.6 14.6 14.6 98 0.4 0.7 170 4.3 0
18:00 - 18:30 14.6 14.7 14.6 98 0.0 2.2 267 5.8 0
18:30 - 19:00 14.5 14.6 14.3 98 0.0 0.7 342 3.2 0
19:00 - 19:30 14.3 14.4 14.3 98 0.1 1.8 322 4.7 0
19:30 - 20:00 14.3 14.3 14.3 98 0.0 0.7 34 2.9 0
20:00 - 20:30 14.3 14.3 14.2 98 0.0 0.4 89 2.2 0
20:30 - 21:00 14.2 14.3 14.1 98 0.0 0.7 285 2.9 0
21:00 - 21:30 14.2 14.2 14.1 98 0.0 0.7 239 3.6 0
21:30 - 22:00 14.1 14.2 14.0 98 0.0 0.7 253 3.2 0

Les dades en taronja només han passat un control de qualitat automàtic. Resta pendent la seva validació definitiva.